createdAt,value
2022-09-23T00:01:23.486Z,86.90
2022-09-23T00:03:50.447Z,87.00
2022-09-23T00:06:19.314Z,87.00
2022-09-23T00:08:46.548Z,87.10
2022-09-23T00:11:15.478Z,87.10
2022-09-23T00:13:43.591Z,87.20
2022-09-23T00:16:13.987Z,87.30
2022-09-23T00:18:41.868Z,87.30
2022-09-23T00:21:11.060Z,87.40
2022-09-23T00:23:38.639Z,87.50
2022-09-23T00:26:06.421Z,87.50
2022-09-23T00:28:33.938Z,87.50
2022-09-23T00:31:09.023Z,87.50
2022-09-23T00:33:35.962Z,87.70
2022-09-23T00:36:04.410Z,88.30
2022-09-23T00:38:31.210Z,87.70
2022-09-23T00:40:58.542Z,87.70
2022-09-23T00:43:41.891Z,87.80
2022-09-23T00:46:10.153Z,87.90
2022-09-23T00:48:38.184Z,87.80
2022-09-23T00:51:05.400Z,87.90
2022-09-23T00:53:32.463Z,88.00
2022-09-23T00:56:02.911Z,88.10
2022-09-23T00:58:31.666Z,88.30
2022-09-23T01:01:05.180Z,88.40
2022-09-23T01:03:32.037Z,88.60
2022-09-23T01:05:58.907Z,88.60
2022-09-23T01:08:26.859Z,88.70
2022-09-23T01:11:15.611Z,88.90
2022-09-23T01:14:15.385Z,89.00
2022-09-23T01:16:54.629Z,89.10
2022-09-23T01:19:27.760Z,89.10
2022-09-23T01:22:06.967Z,89.20
2022-09-23T01:24:55.390Z,89.30
2022-09-23T01:27:31.459Z,89.20
2022-09-23T01:30:16.838Z,89.30
2022-09-23T01:32:46.800Z,89.40
2022-09-23T01:35:30.541Z,89.40
2022-09-23T01:38:15.698Z,89.50
2022-09-23T01:41:15.454Z,89.50
2022-09-23T01:43:42.244Z,89.50
2022-09-23T01:46:13.738Z,89.50
2022-09-23T01:48:46.093Z,89.60
2022-09-23T01:51:14.307Z,89.60
2022-09-23T01:53:46.507Z,89.70
2022-09-23T01:56:24.515Z,89.80
2022-09-23T01:58:57.373Z,89.80
2022-09-23T02:01:35.314Z,89.80
2022-09-23T02:04:11.892Z,89.90
2022-09-23T02:06:55.526Z,90.00
2022-09-23T02:09:28.448Z,90.00
2022-09-23T02:11:58.969Z,90.00
2022-09-23T02:14:31.019Z,90.00
2022-09-23T02:17:01.228Z,90.10
2022-09-23T02:19:28.960Z,90.10
2022-09-23T02:22:03.505Z,90.10
2022-09-23T02:24:31.465Z,90.20
2022-09-23T02:27:09.292Z,90.20
2022-09-23T02:29:40.486Z,90.20
2022-09-23T02:32:20.219Z,90.30
2022-09-23T02:34:54.743Z,90.30
2022-09-23T02:37:48.324Z,90.30
2022-09-23T02:40:18.207Z,90.30
2022-09-23T02:43:07.024Z,90.30
2022-09-23T02:45:34.091Z,90.40
2022-09-23T02:48:14.837Z,90.40
2022-09-23T02:50:41.606Z,90.50
2022-09-23T02:53:08.504Z,90.50
2022-09-23T02:55:35.581Z,90.50
2022-09-23T02:58:03.130Z,90.50
2022-09-23T03:00:50.245Z,90.60
2022-09-23T03:03:26.183Z,90.60
2022-09-23T03:05:57.837Z,90.60
2022-09-23T03:08:50.529Z,90.70
2022-09-23T03:11:17.719Z,90.70
2022-09-23T03:14:07.255Z,90.70
2022-09-23T03:16:43.999Z,90.80
2022-09-23T03:19:29.191Z,90.80
2022-09-23T03:22:03.764Z,90.80
2022-09-23T03:24:31.595Z,90.80
2022-09-23T03:27:00.774Z,90.80
2022-09-23T03:29:28.805Z,90.80
2022-09-23T03:31:55.891Z,90.80
2022-09-23T03:34:28.479Z,90.90
2022-09-23T03:37:01.393Z,90.90
2022-09-23T03:39:42.330Z,91.20
2022-09-23T03:42:21.059Z,91.00
2022-09-23T03:44:48.352Z,91.00
2022-09-23T03:47:15.820Z,91.00
2022-09-23T03:49:49.849Z,91.00
2022-09-23T03:52:17.332Z,91.10
2022-09-23T03:54:44.309Z,91.00
2022-09-23T03:57:11.580Z,91.00
2022-09-23T03:59:38.782Z,91.00
2022-09-23T04:02:07.457Z,91.00
2022-09-23T04:04:37.945Z,91.10
2022-09-23T04:07:04.789Z,91.10
2022-09-23T04:09:31.774Z,91.10
2022-09-23T04:11:58.750Z,91.10
2022-09-23T04:14:25.952Z,91.20
2022-09-23T04:16:52.685Z,91.20
2022-09-23T04:19:19.722Z,91.20
2022-09-23T04:21:46.713Z,91.20
2022-09-23T04:24:14.096Z,91.30
2022-09-23T04:26:41.250Z,91.30
2022-09-23T04:29:08.177Z,91.30
2022-09-23T04:31:35.137Z,91.30
2022-09-23T04:34:02.464Z,91.30
2022-09-23T04:36:30.480Z,91.30
2022-09-23T04:38:57.408Z,91.30
2022-09-23T04:41:24.347Z,91.30
2022-09-23T04:43:51.182Z,91.30
2022-09-23T04:46:18.409Z,91.30
2022-09-23T04:48:45.330Z,91.40
2022-09-23T04:51:13.638Z,91.40
2022-09-23T04:53:41.761Z,91.40
2022-09-23T04:56:10.401Z,91.40
2022-09-23T04:58:37.829Z,91.50
2022-09-23T05:01:16.115Z,91.50
2022-09-23T05:03:43.604Z,91.50
2022-09-23T05:06:13.629Z,91.50
2022-09-23T05:08:41.562Z,91.50
2022-09-23T05:11:09.044Z,91.50
2022-09-23T05:13:36.039Z,91.60
2022-09-23T05:16:04.596Z,91.60
2022-09-23T05:18:32.497Z,91.60
2022-09-23T05:20:59.408Z,91.60
2022-09-23T05:23:27.565Z,91.60
2022-09-23T05:26:02.236Z,91.60
2022-09-23T05:28:33.083Z,91.70
2022-09-23T05:31:08.012Z,91.70
2022-09-23T05:33:35.628Z,91.70
2022-09-23T05:36:03.148Z,91.70
2022-09-23T05:38:30.312Z,91.70
2022-09-23T05:40:58.543Z,91.70
2022-09-23T05:43:25.854Z,91.70
2022-09-23T05:45:52.945Z,91.70
2022-09-23T05:48:19.908Z,91.70
2022-09-23T05:50:53.838Z,91.70
2022-09-23T05:53:21.081Z,91.80
2022-09-23T05:55:48.001Z,91.80
2022-09-23T05:58:14.982Z,91.80
2022-09-23T06:00:42.969Z,91.80
2022-09-23T06:03:17.403Z,91.80
2022-09-23T06:05:44.333Z,92.10
2022-09-23T06:08:11.304Z,91.80
2022-09-23T06:10:41.974Z,91.80
2022-09-23T06:13:09.135Z,91.80
2022-09-23T06:15:36.906Z,91.80
2022-09-23T06:18:06.880Z,91.80
2022-09-23T06:20:35.422Z,91.90
2022-09-23T06:23:10.626Z,92.00
2022-09-23T06:25:40.339Z,92.10
2022-09-23T06:28:12.668Z,92.20
2022-09-23T06:30:42.744Z,92.50
2022-09-23T06:33:10.212Z,92.60
2022-09-23T06:35:37.278Z,92.80
2022-09-23T06:38:04.942Z,93.00
2022-09-23T06:40:32.082Z,93.20
2022-09-23T06:42:59.841Z,93.30
2022-09-23T06:45:27.346Z,93.40
2022-09-23T06:47:57.888Z,93.60
2022-09-23T06:50:28.139Z,93.70
2022-09-23T06:52:56.375Z,93.80
2022-09-23T06:55:30.314Z,93.90
2022-09-23T06:58:00.429Z,94.00
2022-09-23T07:00:29.921Z,94.00
2022-09-23T07:02:57.050Z,94.20
2022-09-23T07:05:24.147Z,94.30
2022-09-23T07:07:51.182Z,94.40
2022-09-23T07:10:18.570Z,94.60
2022-09-23T07:12:45.838Z,94.70
2022-09-23T07:15:13.310Z,94.80
2022-09-23T07:17:42.100Z,94.90
2022-09-23T07:20:11.428Z,95.00
2022-09-23T07:22:38.877Z,95.10
2022-09-23T07:25:06.454Z,95.20
2022-09-23T07:27:33.531Z,95.30
2022-09-23T07:30:00.434Z,95.40
2022-09-23T07:32:28.957Z,95.40
2022-09-23T07:34:57.420Z,95.50
2022-09-23T07:37:24.370Z,95.50
2022-09-23T07:39:51.493Z,95.60
2022-09-23T07:42:18.566Z,95.60
2022-09-23T07:44:47.732Z,95.70
2022-09-23T07:47:14.732Z,95.80
2022-09-23T07:49:41.637Z,95.80
2022-09-23T07:52:08.550Z,95.80
2022-09-23T07:54:35.617Z,95.90
2022-09-23T07:57:02.857Z,96.00
2022-09-23T07:59:29.923Z,96.00
2022-09-23T08:01:57.652Z,96.00
2022-09-23T08:04:29.269Z,96.00
2022-09-23T08:07:00.682Z,96.10
2022-09-23T08:09:29.815Z,96.10
2022-09-23T08:11:56.758Z,96.20
2022-09-23T08:14:23.694Z,96.20
2022-09-23T08:16:50.814Z,96.30
2022-09-23T08:19:18.183Z,96.30
2022-09-23T08:21:47.482Z,96.30
2022-09-23T08:24:16.856Z,96.40
2022-09-23T08:26:44.510Z,96.40
2022-09-23T08:29:17.780Z,96.50
2022-09-23T08:31:44.900Z,96.50
2022-09-23T08:34:12.145Z,96.50
2022-09-23T08:36:39.151Z,96.60
2022-09-23T08:39:06.360Z,96.60
2022-09-23T08:41:59.497Z,96.70
2022-09-23T08:44:37.826Z,96.60
2022-09-23T08:47:07.641Z,96.60
2022-09-23T08:49:41.819Z,96.60
2022-09-23T08:52:14.334Z,96.60
2022-09-23T08:54:41.561Z,96.60
2022-09-23T08:57:10.241Z,96.90
2022-09-23T08:59:43.443Z,96.70
2022-09-23T09:02:19.258Z,96.60
2022-09-23T09:05:00.046Z,96.60
2022-09-23T09:07:36.655Z,96.60
2022-09-23T09:10:04.554Z,96.60
2022-09-23T09:12:44.178Z,96.70
2022-09-23T09:15:15.388Z,96.60
2022-09-23T09:19:02.079Z,96.60
2022-09-23T09:21:05.280Z,96.60
2022-09-23T09:23:34.990Z,96.50
2022-09-23T09:26:02.624Z,96.40
2022-09-23T09:28:42.646Z,96.30
2022-09-23T09:31:21.472Z,96.40
2022-09-23T09:33:48.667Z,96.30
2022-09-23T09:36:39.885Z,96.30
2022-09-23T09:39:07.362Z,96.30
2022-09-23T09:41:34.102Z,96.30
2022-09-23T09:44:03.510Z,96.40
2022-09-23T09:46:47.387Z,96.40
2022-09-23T09:49:41.659Z,96.40
2022-09-23T09:52:12.429Z,96.50
2022-09-23T09:54:39.792Z,96.50
2022-09-23T09:57:16.014Z,96.50
2022-09-23T09:59:43.026Z,96.50
2022-09-23T10:02:28.517Z,96.50
2022-09-23T10:05:03.664Z,96.50
2022-09-23T10:07:33.914Z,96.50
2022-09-23T10:10:33.142Z,96.50
2022-09-23T10:13:05.159Z,96.50
2022-09-23T10:15:34.774Z,96.50
2022-09-23T10:18:02.487Z,96.50
2022-09-23T10:20:38.096Z,96.50
2022-09-23T10:23:15.273Z,96.50
2022-09-23T10:25:42.284Z,96.50
2022-09-23T10:28:32.376Z,96.40
2022-09-23T10:31:11.675Z,96.40
2022-09-23T10:33:52.716Z,96.40
2022-09-23T10:36:20.122Z,96.40
2022-09-23T10:39:27.699Z,96.40
2022-09-23T10:42:49.251Z,96.50
2022-09-23T10:45:39.820Z,96.40
2022-09-23T10:48:29.560Z,96.40
2022-09-23T10:50:59.609Z,96.30
2022-09-23T10:53:29.428Z,96.20
2022-09-23T10:56:09.915Z,96.20
2022-09-23T10:58:46.544Z,96.30
2022-09-23T11:01:42.677Z,96.30
2022-09-23T11:04:28.909Z,96.30
2022-09-23T11:07:20.930Z,96.30
2022-09-23T11:09:59.756Z,96.10
2022-09-23T11:13:06.272Z,95.90
2022-09-23T11:15:45.185Z,95.80
2022-09-23T11:18:51.729Z,95.80
2022-09-23T11:21:35.067Z,95.70
2022-09-23T11:24:34.289Z,95.60
2022-09-23T11:27:26.088Z,95.50
2022-09-23T11:30:28.520Z,95.50
2022-09-23T11:35:49.178Z,95.30
2022-09-23T11:38:36.704Z,95.20
2022-09-23T11:41:37.672Z,95.20
2022-09-23T11:44:13.766Z,95.00
2022-09-23T11:46:48.881Z,95.00
2022-09-23T11:49:22.980Z,94.90
2022-09-23T11:52:03.482Z,94.80
2022-09-23T11:54:46.723Z,94.80
2022-09-23T11:58:00.137Z,94.60
2022-09-23T12:00:34.354Z,94.30
2022-09-23T12:03:37.644Z,94.10
2022-09-23T12:06:20.065Z,93.90
2022-09-23T12:08:47.254Z,94.00
2022-09-23T12:11:35.145Z,93.80
2022-09-23T12:14:17.022Z,93.70
2022-09-23T12:16:49.189Z,93.60
2022-09-23T12:19:19.025Z,93.50
2022-09-23T12:22:01.317Z,93.40
2022-09-23T12:24:43.421Z,93.20
2022-09-23T12:27:21.937Z,92.80
2022-09-23T12:29:54.405Z,92.70
2022-09-23T12:32:21.469Z,92.50
2022-09-23T12:34:50.286Z,92.20
2022-09-23T12:37:46.764Z,91.80
2022-09-23T12:40:34.662Z,91.50
2022-09-23T12:43:02.388Z,91.30
2022-09-23T12:45:33.970Z,91.30
2022-09-23T12:48:19.037Z,91.20
2022-09-23T12:51:07.722Z,91.10
2022-09-23T12:53:34.488Z,91.00
2022-09-23T12:56:15.176Z,90.90
2022-09-23T12:58:45.163Z,90.80
2022-09-23T13:01:15.114Z,90.80
2022-09-23T13:04:10.981Z,90.80
2022-09-23T13:06:40.617Z,90.90
2022-09-23T13:09:15.543Z,90.80
2022-09-23T13:11:46.079Z,90.70
2022-09-23T13:14:15.483Z,90.60
2022-09-23T13:16:43.981Z,90.50
2022-09-23T13:19:26.384Z,90.50
2022-09-23T13:22:12.239Z,90.20
2022-09-23T13:24:53.704Z,90.20
2022-09-23T13:27:36.111Z,90.10
2022-09-23T13:30:20.305Z,89.80
2022-09-23T13:33:11.699Z,89.60
2022-09-23T13:35:40.888Z,89.40
2022-09-23T13:38:28.884Z,89.40
2022-09-23T13:41:00.177Z,89.00
2022-09-23T13:43:38.938Z,89.20
2022-09-23T13:46:32.053Z,89.00
2022-09-23T13:48:59.009Z,88.70
2022-09-23T13:51:33.368Z,88.60
2022-09-23T13:54:01.616Z,87.90
2022-09-23T13:56:30.671Z,87.70
2022-09-23T13:59:22.934Z,87.60
2022-09-23T14:01:50.171Z,87.40
2022-09-23T14:04:26.689Z,87.40
2022-09-23T14:06:53.979Z,86.80
2022-09-23T14:09:22.322Z,86.80
2022-09-23T14:11:49.769Z,86.40
2022-09-23T14:14:16.761Z,86.10
2022-09-23T14:16:43.783Z,85.90
2022-09-23T14:19:16.870Z,85.50
2022-09-23T14:21:43.842Z,85.40
2022-09-23T14:24:10.558Z,85.50
2022-09-23T14:26:37.640Z,85.10
2022-09-23T14:29:04.488Z,84.80
2022-09-23T14:31:32.912Z,84.40
2022-09-23T14:33:59.854Z,84.00
2022-09-23T14:36:47.760Z,83.70
2022-09-23T14:39:14.584Z,83.40
2022-09-23T14:41:48.307Z,83.50
2022-09-23T14:44:22.687Z,83.10
2022-09-23T14:46:59.778Z,82.80
2022-09-23T14:49:26.946Z,82.50
2022-09-23T14:51:55.478Z,82.50
2022-09-23T14:54:36.000Z,82.50
2022-09-23T14:57:20.914Z,82.30
2022-09-23T15:00:09.193Z,82.00
2022-09-23T15:02:37.721Z,81.70
2022-09-23T15:05:24.179Z,81.60
2022-09-23T15:07:55.079Z,81.40
2022-09-23T15:10:31.430Z,81.60
2022-09-23T15:13:07.463Z,81.60
2022-09-23T15:15:35.897Z,81.30
2022-09-23T15:18:10.845Z,81.30
2022-09-23T15:20:38.201Z,81.20
2022-09-23T15:23:05.029Z,81.10
2022-09-23T15:25:33.597Z,81.00
2022-09-23T15:28:16.591Z,80.70
2022-09-23T15:30:43.622Z,80.60
2022-09-23T15:33:16.255Z,80.60
2022-09-23T15:35:48.762Z,80.10
2022-09-23T15:38:17.703Z,79.70
2022-09-23T15:40:44.671Z,79.70
2022-09-23T15:43:21.871Z,79.90
2022-09-23T15:45:56.503Z,79.70
2022-09-23T15:48:25.618Z,79.60
2022-09-23T15:50:52.546Z,79.40
2022-09-23T15:53:27.103Z,79.30
2022-09-23T15:55:54.333Z,79.20
2022-09-23T15:58:21.786Z,79.10
2022-09-23T16:00:56.043Z,79.10
2022-09-23T16:03:25.974Z,78.80
2022-09-23T16:05:52.929Z,78.80
2022-09-23T16:08:23.369Z,78.70
2022-09-23T16:10:51.215Z,78.50
2022-09-23T16:13:18.231Z,78.30
2022-09-23T16:15:45.136Z,78.20
2022-09-23T16:18:15.390Z,78.10
2022-09-23T16:20:44.616Z,78.00
2022-09-23T16:23:35.152Z,77.90
2022-09-23T16:26:08.057Z,77.60
2022-09-23T16:28:35.065Z,77.60
2022-09-23T16:31:02.396Z,77.60
2022-09-23T16:33:31.750Z,77.60
2022-09-23T16:36:00.915Z,77.90
2022-09-23T16:38:29.069Z,78.10
2022-09-23T16:40:59.560Z,78.20
2022-09-23T16:43:39.817Z,78.50
2022-09-23T16:46:12.378Z,78.80
2022-09-23T16:48:40.550Z,79.00
2022-09-23T16:51:29.125Z,79.20
2022-09-23T16:53:56.788Z,79.30
2022-09-23T16:56:28.821Z,79.60
2022-09-23T16:58:59.075Z,79.70
2022-09-23T17:01:45.997Z,79.90
2022-09-23T17:04:13.418Z,80.10
2022-09-23T17:06:53.743Z,80.30
2022-09-23T17:09:22.851Z,80.20
2022-09-23T17:11:59.209Z,80.30
2022-09-23T17:14:32.436Z,80.40
2022-09-23T17:16:59.248Z,80.40
2022-09-23T17:19:26.329Z,80.50
2022-09-23T17:21:53.567Z,80.50
2022-09-23T17:24:20.455Z,80.50
2022-09-23T17:26:50.686Z,80.60
2022-09-23T17:29:19.867Z,80.70
2022-09-23T17:31:46.851Z,80.70
2022-09-23T17:34:18.798Z,80.80
2022-09-23T17:36:46.120Z,80.90
2022-09-23T17:39:13.096Z,81.00
2022-09-23T17:41:40.094Z,81.00
2022-09-23T17:44:08.585Z,81.20
2022-09-23T17:46:35.525Z,81.20
2022-09-23T17:49:03.947Z,81.30
2022-09-23T17:51:31.319Z,81.40
2022-09-23T17:53:58.307Z,82.00
2022-09-23T17:56:33.043Z,81.60
2022-09-23T17:59:01.972Z,81.70
2022-09-23T18:01:29.423Z,81.80
2022-09-23T18:03:57.681Z,81.90
2022-09-23T18:06:26.121Z,82.10
2022-09-23T18:08:52.981Z,82.20
2022-09-23T18:11:22.516Z,82.30
2022-09-23T18:13:51.331Z,82.40
2022-09-23T18:16:23.781Z,82.50
2022-09-23T18:18:52.544Z,82.50
2022-09-23T18:21:23.378Z,82.50
2022-09-23T18:23:50.681Z,82.60
2022-09-23T18:26:20.653Z,82.60
2022-09-23T18:28:48.247Z,82.70
2022-09-23T18:31:15.504Z,82.70
2022-09-23T18:33:42.645Z,82.80
2022-09-23T18:36:12.518Z,82.90
2022-09-23T18:38:39.872Z,82.90
2022-09-23T18:41:07.314Z,82.90
2022-09-23T18:43:40.063Z,83.00
2022-09-23T18:46:19.446Z,83.00
2022-09-23T18:49:05.054Z,83.10
2022-09-23T18:51:32.594Z,83.20
2022-09-23T18:54:01.377Z,83.20
2022-09-23T18:56:33.610Z,83.20
2022-09-23T18:59:00.819Z,83.40
2022-09-23T19:01:30.077Z,83.40
2022-09-23T19:03:57.885Z,83.50
2022-09-23T19:06:25.001Z,83.40
2022-09-23T19:08:53.266Z,83.50
2022-09-23T19:11:20.280Z,83.60
2022-09-23T19:13:47.319Z,83.70
2022-09-23T19:16:15.336Z,83.80
2022-09-23T19:18:43.323Z,83.80
2022-09-23T19:21:12.719Z,83.80
2022-09-23T19:23:40.314Z,83.90
2022-09-23T19:26:12.012Z,83.90
2022-09-23T19:28:39.415Z,83.90
2022-09-23T19:31:11.121Z,84.60
2022-09-23T19:33:39.162Z,84.00
2022-09-23T19:36:14.927Z,84.10
2022-09-23T19:38:42.063Z,84.20
2022-09-23T19:41:09.118Z,84.10
2022-09-23T19:43:37.863Z,84.20
2022-09-23T19:46:06.826Z,84.20
2022-09-23T19:48:34.327Z,84.30
2022-09-23T19:51:05.225Z,84.80
2022-09-23T19:55:43.239Z,84.30
2022-09-23T19:56:38.695Z,84.30
2022-09-23T19:59:07.403Z,84.40
2022-09-23T20:01:34.611Z,84.50
2022-09-23T20:04:05.176Z,84.50
2022-09-23T20:06:39.830Z,84.60
2022-09-23T20:09:06.983Z,84.60
2022-09-23T20:11:34.840Z,84.70
2022-09-23T20:14:06.796Z,84.70
2022-09-23T20:16:35.268Z,84.80
2022-09-23T20:19:03.059Z,84.90
2022-09-23T20:21:35.415Z,85.00
2022-09-23T20:24:04.784Z,85.00
2022-09-23T20:26:49.989Z,85.10
2022-09-23T20:29:17.058Z,85.20
2022-09-23T20:31:44.640Z,85.20
2022-09-23T20:34:12.381Z,85.30
2022-09-23T20:36:41.593Z,85.30
2022-09-23T20:39:11.079Z,85.40
2022-09-23T20:41:39.381Z,85.40
2022-09-23T20:44:08.069Z,85.50
2022-09-23T20:46:36.068Z,86.10
2022-09-23T20:49:03.982Z,85.60
2022-09-23T20:51:33.967Z,85.70
2022-09-23T20:54:01.012Z,85.70
2022-09-23T20:56:28.707Z,85.70
2022-09-23T20:58:59.907Z,85.70
2022-09-23T21:01:27.654Z,85.60
2022-09-23T21:03:56.021Z,85.60
2022-09-23T21:06:26.107Z,85.60
2022-09-23T21:08:53.894Z,85.60
2022-09-23T21:11:21.824Z,85.60
2022-09-23T21:13:50.177Z,85.60
2022-09-23T21:16:21.320Z,85.70
2022-09-23T21:18:48.912Z,85.70
2022-09-23T21:21:17.219Z,85.70
2022-09-23T21:23:45.075Z,85.70
2022-09-23T21:26:24.273Z,85.50
2022-09-23T21:28:56.983Z,85.50
2022-09-23T21:31:35.242Z,85.60
2022-09-23T21:34:09.441Z,85.60
2022-09-23T21:36:37.851Z,85.60
2022-09-23T21:39:10.165Z,85.70
2022-09-23T21:41:38.613Z,85.70
2022-09-23T21:44:06.506Z,85.70
2022-09-23T21:46:33.958Z,86.40
2022-09-23T21:49:02.314Z,85.90
2022-09-23T21:51:41.525Z,85.90
2022-09-23T21:54:17.890Z,86.00
2022-09-23T21:56:48.117Z,86.00
2022-09-23T21:59:15.186Z,86.10
2022-09-23T22:01:44.629Z,86.10
2022-09-23T22:04:18.590Z,86.20
2022-09-23T22:06:53.899Z,86.30
2022-09-23T22:09:23.717Z,86.40
2022-09-23T22:12:09.884Z,86.40
2022-09-23T22:14:38.954Z,86.40
2022-09-23T22:17:10.320Z,86.60
2022-09-23T22:19:45.819Z,86.60
2022-09-23T22:22:14.325Z,86.70
2022-09-23T22:24:42.167Z,86.80
2022-09-23T22:27:09.570Z,86.90
2022-09-23T22:29:55.368Z,87.00
2022-09-23T22:32:40.900Z,87.00
2022-09-23T22:35:17.034Z,87.10
2022-09-23T22:37:44.030Z,87.20
2022-09-23T22:40:15.157Z,87.40
2022-09-23T22:42:42.787Z,87.40
2022-09-23T22:45:10.632Z,87.50
2022-09-23T22:47:38.720Z,87.70
2022-09-23T22:50:06.691Z,87.80
2022-09-23T22:52:33.673Z,87.80
2022-09-23T22:55:00.896Z,88.00
2022-09-23T22:57:28.074Z,88.10
2022-09-23T22:59:55.078Z,88.20
2022-09-23T23:02:24.524Z,88.20
2022-09-23T23:04:51.319Z,88.40
2022-09-23T23:07:22.904Z,88.40
2022-09-23T23:09:50.463Z,88.60
2022-09-23T23:12:19.195Z,88.60
2022-09-23T23:14:46.892Z,88.70
2022-09-23T23:17:13.808Z,88.80
2022-09-23T23:19:40.613Z,88.90
2022-09-23T23:22:07.576Z,89.10
2022-09-23T23:24:34.580Z,89.30
2022-09-23T23:27:01.721Z,89.40
2022-09-23T23:29:28.646Z,89.60
2022-09-23T23:31:55.619Z,89.70
2022-09-23T23:34:22.978Z,89.70
2022-09-23T23:36:55.535Z,89.90
2022-09-23T23:39:26.150Z,90.00
2022-09-23T23:41:56.298Z,90.00
2022-09-23T23:44:24.753Z,90.10
2022-09-23T23:46:51.901Z,90.20
2022-09-23T23:49:18.905Z,90.20
2022-09-23T23:51:45.719Z,90.30
2022-09-23T23:54:12.851Z,90.30
2022-09-23T23:56:39.727Z,90.40
2022-09-23T23:59:07.075Z,90.40
